sensor_id;sensor_type;location;lat;lon;timestamp;pressure;altitude;pressure_sealevel;temperature;humidity
29935;BME280;19905;53.370;-6.314;2022-08-19T00:02:07;100665.47;;;14.14;100.00
29935;BME280;19905;53.370;-6.314;2022-08-19T00:04:44;100667.72;;;14.09;100.00
29935;BME280;19905;53.370;-6.314;2022-08-19T00:07:15;100663.41;;;14.08;100.00
29935;BME280;19905;53.370;-6.314;2022-08-19T00:09:44;100666.72;;;14.19;100.00
29935;BME280;19905;53.370;-6.314;2022-08-19T00:12:13;100664.50;;;14.05;100.00
29935;BME280;19905;53.370;-6.314;2022-08-19T00:14:44;100669.41;;;14.00;100.00
29935;BME280;19905;53.370;-6.314;2022-08-19T00:17:25;100673.19;;;13.97;100.00
29935;BME280;19905;53.370;-6.314;2022-08-19T00:19:57;100680.03;;;13.90;100.00
29935;BME280;19905;53.370;-6.314;2022-08-19T00:22:28;100681.00;;;13.89;100.00
29935;BME280;19905;53.370;-6.314;2022-08-19T00:24:59;100676.53;;;13.90;100.00
29935;BME280;19905;53.370;-6.314;2022-08-19T00:27:28;100680.72;;;13.92;100.00
29935;BME280;19905;53.370;-6.314;2022-08-19T00:29:59;100678.06;;;13.92;100.00
29935;BME280;19905;53.370;-6.314;2022-08-19T00:32:31;100679.03;;;13.91;100.00
29935;BME280;19905;53.370;-6.314;2022-08-19T00:35:03;100679.59;;;13.85;100.00
29935;BME280;19905;53.370;-6.314;2022-08-19T00:37:35;100681.00;;;13.80;100.00
29935;BME280;19905;53.370;-6.314;2022-08-19T00:40:07;100693.56;;;13.78;100.00
29935;BME280;19905;53.370;-6.314;2022-08-19T00:42:36;100696.78;;;13.71;100.00
29935;BME280;19905;53.370;-6.314;2022-08-19T00:45:10;100689.38;;;13.75;100.00
29935;BME280;19905;53.370;-6.314;2022-08-19T00:47:39;100693.41;;;13.69;100.00
29935;BME280;19905;53.370;-6.314;2022-08-19T00:50:14;100698.44;;;13.72;100.00
29935;BME280;19905;53.370;-6.314;2022-08-19T00:52:53;100694.94;;;13.62;100.00
29935;BME280;19905;53.370;-6.314;2022-08-19T00:55:26;100696.75;;;13.62;100.00
29935;BME280;19905;53.370;-6.314;2022-08-19T00:57:59;100692.72;;;13.67;100.00
29935;BME280;19905;53.370;-6.314;2022-08-19T01:00:52;100681.69;;;13.62;100.00
29935;BME280;19905;53.370;-6.314;2022-08-19T01:03:22;100690.88;;;13.58;100.00
29935;BME280;19905;53.370;-6.314;2022-08-19T01:05:54;100692.97;;;13.55;100.00
29935;BME280;19905;53.370;-6.314;2022-08-19T01:08:31;100691.03;;;13.57;100.00
29935;BME280;19905;53.370;-6.314;2022-08-19T01:11:31;100682.94;;;13.58;100.00
29935;BME280;19905;53.370;-6.314;2022-08-19T01:14:03;100692.72;;;13.58;100.00
29935;BME280;19905;53.370;-6.314;2022-08-19T01:16:35;100694.13;;;13.62;100.00
29935;BME280;19905;53.370;-6.314;2022-08-19T01:19:10;100689.91;;;13.69;100.00
29935;BME280;19905;53.370;-6.314;2022-08-19T01:21:50;100702.66;;;13.65;100.00
29935;BME280;19905;53.370;-6.314;2022-08-19T01:24:24;100700.13;;;13.73;100.00
29935;BME280;19905;53.370;-6.314;2022-08-19T01:26:55;100695.22;;;13.69;100.00
29935;BME280;19905;53.370;-6.314;2022-08-19T01:29:25;100700.28;;;13.72;100.00
29935;BME280;19905;53.370;-6.314;2022-08-19T01:32:00;100701.81;;;13.75;100.00
29935;BME280;19905;53.370;-6.314;2022-08-19T01:34:35;100697.47;;;13.73;100.00
29935;BME280;19905;53.370;-6.314;2022-08-19T01:37:06;100708.38;;;13.80;100.00
29935;BME280;19905;53.370;-6.314;2022-08-19T01:39:40;100697.34;;;13.75;100.00
29935;BME280;19905;53.370;-6.314;2022-08-19T01:42:09;100707.97;;;13.75;100.00
29935;BME280;19905;53.370;-6.314;2022-08-19T01:44:40;100704.06;;;13.89;100.00
29935;BME280;19905;53.370;-6.314;2022-08-19T01:47:11;100705.00;;;13.78;100.00
29935;BME280;19905;53.370;-6.314;2022-08-19T01:49:40;100707.41;;;13.81;100.00
29935;BME280;19905;53.370;-6.314;2022-08-19T01:52:15;100703.09;;;13.80;100.00
29935;BME280;19905;53.370;-6.314;2022-08-19T01:54:45;100701.94;;;13.83;100.00
29935;BME280;19905;53.370;-6.314;2022-08-19T01:57:20;100702.66;;;13.85;100.00
29935;BME280;19905;53.370;-6.314;2022-08-19T01:59:49;100701.41;;;13.79;100.00
29935;BME280;19905;53.370;-6.314;2022-08-19T02:02:18;100706.41;;;13.82;100.00
29935;BME280;19905;53.370;-6.314;2022-08-19T02:04:47;100703.19;;;13.79;100.00
29935;BME280;19905;53.370;-6.314;2022-08-19T02:07:19;100707.41;;;13.71;100.00
29935;BME280;19905;53.370;-6.314;2022-08-19T02:09:51;100709.22;;;13.71;100.00
29935;BME280;19905;53.370;-6.314;2022-08-19T02:12:19;100707.81;;;13.77;100.00
29935;BME280;19905;53.370;-6.314;2022-08-19T02:14:49;100712.56;;;13.73;100.00
29935;BME280;19905;53.370;-6.314;2022-08-19T02:17:25;100719.25;;;13.67;100.00
29935;BME280;19905;53.370;-6.314;2022-08-19T02:19:58;100715.06;;;13.65;100.00
29935;BME280;19905;53.370;-6.314;2022-08-19T02:22:27;100723.47;;;13.70;100.00
29935;BME280;19905;53.370;-6.314;2022-08-19T02:24:57;100718.69;;;13.64;100.00
29935;BME280;19905;53.370;-6.314;2022-08-19T02:27:28;100710.72;;;13.64;100.00
29935;BME280;19905;53.370;-6.314;2022-08-19T02:29:59;100720.22;;;13.57;100.00
29935;BME280;19905;53.370;-6.314;2022-08-19T02:32:28;100718.06;;;13.41;100.00
29935;BME280;19905;53.370;-6.314;2022-08-19T02:34:59;100717.09;;;13.42;100.00
29935;BME280;19905;53.370;-6.314;2022-08-19T02:37:27;100720.28;;;13.36;100.00
29935;BME280;19905;53.370;-6.314;2022-08-19T02:40:26;100717.06;;;13.32;100.00
29935;BME280;19905;53.370;-6.314;2022-08-19T02:42:55;100716.13;;;13.33;100.00
29935;BME280;19905;53.370;-6.314;2022-08-19T02:45:32;100714.16;;;13.35;100.00
29935;BME280;19905;53.370;-6.314;2022-08-19T02:48:03;100705.75;;;13.30;100.00
29935;BME280;19905;53.370;-6.314;2022-08-19T02:50:48;100703.69;;;13.34;100.00
29935;BME280;19905;53.370;-6.314;2022-08-19T02:53:27;100705.63;;;13.32;100.00
29935;BME280;19905;53.370;-6.314;2022-08-19T02:55:58;100705.50;;;13.33;100.00
29935;BME280;19905;53.370;-6.314;2022-08-19T02:58:31;100696.28;;;13.37;100.00
29935;BME280;19905;53.370;-6.314;2022-08-19T03:01:01;100705.50;;;13.33;100.00
29935;BME280;19905;53.370;-6.314;2022-08-19T03:03:30;100705.03;;;13.28;100.00
29935;BME280;19905;53.370;-6.314;2022-08-19T03:06:07;100709.66;;;13.26;100.00
29935;BME280;19905;53.370;-6.314;2022-08-19T03:08:37;100712.69;;;13.21;100.00
29935;BME280;19905;53.370;-6.314;2022-08-19T03:11:21;100710.56;;;13.15;100.00
29935;BME280;19905;53.370;-6.314;2022-08-19T03:13:56;100718.94;;;13.11;100.00
29935;BME280;19905;53.370;-6.314;2022-08-19T03:16:30;100717.22;;;13.10;100.00
29935;BME280;19905;53.370;-6.314;2022-08-19T03:19:00;100714.03;;;13.06;100.00
29935;BME280;19905;53.370;-6.314;2022-08-19T03:21:33;100718.31;;;12.97;100.00
29935;BME280;19905;53.370;-6.314;2022-08-19T03:24:04;100713.03;;;13.07;100.00
29935;BME280;19905;53.370;-6.314;2022-08-19T03:26:39;100717.34;;;12.98;100.00
29935;BME280;19905;53.370;-6.314;2022-08-19T03:29:25;100714.03;;;13.06;100.00
29935;BME280;19905;53.370;-6.314;2022-08-19T03:31:59;100719.72;;;13.02;100.00
29935;BME280;19905;53.370;-6.314;2022-08-19T03:34:32;100723.06;;;13.04;100.00
29935;BME280;19905;53.370;-6.314;2022-08-19T03:37:06;100730.63;;;13.08;100.00
29935;BME280;19905;53.370;-6.314;2022-08-19T03:39:46;100724.31;;;13.00;100.00
29935;BME280;19905;53.370;-6.314;2022-08-19T03:42:18;100722.38;;;13.02;100.00
29935;BME280;19905;53.370;-6.314;2022-08-19T03:45:05;100737.81;;;12.96;100.00
29935;BME280;19905;53.370;-6.314;2022-08-19T03:47:36;100720.38;;;12.94;100.00
29935;BME280;19905;53.370;-6.314;2022-08-19T03:50:05;100724.69;;;12.95;100.00
29935;BME280;19905;53.370;-6.314;2022-08-19T03:52:35;100715.94;;;13.04;100.00
29935;BME280;19905;53.370;-6.314;2022-08-19T03:55:05;100714.81;;;12.97;100.00
29935;BME280;19905;53.370;-6.314;2022-08-19T03:57:35;100714.53;;;13.00;100.00
29935;BME280;19905;53.370;-6.314;2022-08-19T04:00:06;100716.78;;;13.05;100.00
29935;BME280;19905;53.370;-6.314;2022-08-19T04:02:40;100725.03;;;13.02;100.00
29935;BME280;19905;53.370;-6.314;2022-08-19T04:05:26;100722.78;;;12.97;100.00
29935;BME280;19905;53.370;-6.314;2022-08-19T04:07:56;100711.78;;;13.02;100.00
29935;BME280;19905;53.370;-6.314;2022-08-19T04:10:27;100717.63;;;13.05;100.00
29935;BME280;19905;53.370;-6.314;2022-08-19T04:13:06;100711.88;;;13.00;100.00
29935;BME280;19905;53.370;-6.314;2022-08-19T04:15:39;100711.78;;;13.02;100.00
29935;BME280;19905;53.370;-6.314;2022-08-19T04:18:10;100719.53;;;12.93;100.00
29935;BME280;19905;53.370;-6.314;2022-08-19T04:20:45;100712.16;;;12.97;100.00
29935;BME280;19905;53.370;-6.314;2022-08-19T04:23:24;100721.06;;;12.96;100.00
29935;BME280;19905;53.370;-6.314;2022-08-19T04:25:58;100717.72;;;12.94;100.00
29935;BME280;19905;53.370;-6.314;2022-08-19T04:28:34;100718.81;;;12.91;100.00
29935;BME280;19905;53.370;-6.314;2022-08-19T04:31:04;100712.09;;;12.87;100.00
29935;BME280;19905;53.370;-6.314;2022-08-19T04:33:36;100710.16;;;12.89;100.00
29935;BME280;19905;53.370;-6.314;2022-08-19T04:36:05;100719.59;;;12.82;100.00
29935;BME280;19905;53.370;-6.314;2022-08-19T04:38:36;100716.13;;;12.82;100.00
29935;BME280;19905;53.370;-6.314;2022-08-19T04:41:05;100724.22;;;12.80;100.00
29935;BME280;19905;53.370;-6.314;2022-08-19T04:43:53;100723.03;;;12.73;100.00
29935;BME280;19905;53.370;-6.314;2022-08-19T04:46:24;100720.53;;;12.71;100.00
29935;BME280;19905;53.370;-6.314;2022-08-19T04:49:09;100722.50;;;12.69;100.00
29935;BME280;19905;53.370;-6.314;2022-08-19T04:51:42;100720.09;;;12.66;100.00
29935;BME280;19905;53.370;-6.314;2022-08-19T04:54:17;100727.44;;;12.63;100.00
29935;BME280;19905;53.370;-6.314;2022-08-19T04:57:08;100730.56;;;12.68;100.00
29935;BME280;19905;53.370;-6.314;2022-08-19T04:59:43;100726.47;;;12.64;100.00
29935;BME280;19905;53.370;-6.314;2022-08-19T05:02:12;100743.09;;;12.66;100.00
29935;BME280;19905;53.370;-6.314;2022-08-19T05:04:46;100729.84;;;12.66;100.00
29935;BME280;19905;53.370;-6.314;2022-08-19T05:07:16;100747.69;;;12.64;100.00
29935;BME280;19905;53.370;-6.314;2022-08-19T05:09:48;100736.25;;;12.63;100.00
29935;BME280;19905;53.370;-6.314;2022-08-19T05:12:26;100740.47;;;12.66;100.00
29935;BME280;19905;53.370;-6.314;2022-08-19T05:15:05;100733.78;;;12.71;100.00
29935;BME280;19905;53.370;-6.314;2022-08-19T05:17:35;100735.75;;;12.69;100.00
29935;BME280;19905;53.370;-6.314;2022-08-19T05:20:09;100725.88;;;12.81;100.00
29935;BME280;19905;53.370;-6.314;2022-08-19T05:23:00;100728.34;;;12.73;100.00
29935;BME280;19905;53.370;-6.314;2022-08-19T05:25:40;100727.50;;;12.72;100.00
29935;BME280;19905;53.370;-6.314;2022-08-19T05:28:17;100730.31;;;12.71;100.00
29935;BME280;19905;53.370;-6.314;2022-08-19T05:30:51;100745.03;;;12.64;100.00
29935;BME280;19905;53.370;-6.314;2022-08-19T05:33:23;100741.28;;;12.66;100.00
29935;BME280;19905;53.370;-6.314;2022-08-19T05:35:55;100740.56;;;12.64;100.00
29935;BME280;19905;53.370;-6.314;2022-08-19T05:38:24;100740.94;;;12.60;100.00
29935;BME280;19905;53.370;-6.314;2022-08-19T05:40:56;100738.19;;;12.61;100.00
29935;BME280;19905;53.370;-6.314;2022-08-19T05:43:24;100741.16;;;12.68;100.00
29935;BME280;19905;53.370;-6.314;2022-08-19T05:45:57;100744.09;;;12.65;100.00
29935;BME280;19905;53.370;-6.314;2022-08-19T05:48:27;100757.19;;;12.66;100.00
29935;BME280;19905;53.370;-6.314;2022-08-19T05:51:12;100750.72;;;12.59;100.00
29935;BME280;19905;53.370;-6.314;2022-08-19T05:53:45;100752.88;;;12.65;100.00
29935;BME280;19905;53.370;-6.314;2022-08-19T05:56:19;100761.66;;;12.66;100.00
29935;BME280;19905;53.370;-6.314;2022-08-19T05:58:53;100768.50;;;12.68;100.00
29935;BME280;19905;53.370;-6.314;2022-08-19T06:01:26;100769.31;;;12.69;100.00
29935;BME280;19905;53.370;-6.314;2022-08-19T06:03:56;100767.66;;;12.68;100.00
29935;BME280;19905;53.370;-6.314;2022-08-19T06:06:30;100773.69;;;12.70;100.00
29935;BME280;19905;53.370;-6.314;2022-08-19T06:09:03;100774.25;;;12.73;100.00
29935;BME280;19905;53.370;-6.314;2022-08-19T06:11:36;100780.13;;;12.77;100.00
29935;BME280;19905;53.370;-6.314;2022-08-19T06:14:11;100784.28;;;12.70;100.00
29935;BME280;19905;53.370;-6.314;2022-08-19T06:16:53;100785.56;;;12.76;100.00
29935;BME280;19905;53.370;-6.314;2022-08-19T06:19:23;100786.31;;;12.87;100.00
29935;BME280;19905;53.370;-6.314;2022-08-19T06:21:54;100797.22;;;12.84;100.00
29935;BME280;19905;53.370;-6.314;2022-08-19T06:24:25;100793.34;;;12.88;100.00
29935;BME280;19905;53.370;-6.314;2022-08-19T06:27:03;100795.00;;;12.89;100.00
29935;BME280;19905;53.370;-6.314;2022-08-19T06:29:34;100792.66;;;12.96;100.00
29935;BME280;19905;53.370;-6.314;2022-08-19T06:32:06;100797.72;;;12.99;100.00
29935;BME280;19905;53.370;-6.314;2022-08-19T06:34:41;100807.69;;;13.07;100.00
29935;BME280;19905;53.370;-6.314;2022-08-19T06:37:11;100796.22;;;13.06;100.00
29935;BME280;19905;53.370;-6.314;2022-08-19T06:39:43;100806.13;;;13.04;100.00
29935;BME280;19905;53.370;-6.314;2022-08-19T06:42:14;100809.34;;;13.08;100.00
29935;BME280;19905;53.370;-6.314;2022-08-19T06:44:51;100806.75;;;13.17;100.00
29935;BME280;19905;53.370;-6.314;2022-08-19T06:47:22;100811.81;;;13.20;100.00
29935;BME280;19905;53.370;-6.314;2022-08-19T06:49:54;100813.81;;;13.28;100.00
29935;BME280;19905;53.370;-6.314;2022-08-19T06:52:35;100812.31;;;13.35;100.00
29935;BME280;19905;53.370;-6.314;2022-08-19T06:55:05;100817.38;;;13.38;100.00
29935;BME280;19905;53.370;-6.314;2022-08-19T06:57:40;100807.19;;;13.43;100.00
29935;BME280;19905;53.370;-6.314;2022-08-19T07:00:22;100813.63;;;13.51;100.00
29935;BME280;19905;53.370;-6.314;2022-08-19T07:02:56;100800.94;;;13.54;100.00
29935;BME280;19905;53.370;-6.314;2022-08-19T07:05:38;100803.53;;;13.75;100.00
29935;BME280;19905;53.370;-6.314;2022-08-19T07:08:12;100806.84;;;13.67;100.00
29935;BME280;19905;53.370;-6.314;2022-08-19T07:10:44;100810.66;;;13.75;100.00
29935;BME280;19905;53.370;-6.314;2022-08-19T07:13:13;100811.81;;;13.91;100.00
29935;BME280;19905;53.370;-6.314;2022-08-19T07:15:42;100811.72;;;14.12;100.00
29935;BME280;19905;53.370;-6.314;2022-08-19T07:18:22;100819.97;;;14.19;100.00
29935;BME280;19905;53.370;-6.314;2022-08-19T07:21:07;100824.19;;;14.21;100.00
29935;BME280;19905;53.370;-6.314;2022-08-19T07:23:38;100826.09;;;14.10;100.00
29935;BME280;19905;53.370;-6.314;2022-08-19T07:26:12;100808.91;;;14.04;100.00
29935;BME280;19905;53.370;-6.314;2022-08-19T07:28:43;100809.88;;;14.03;100.00
29935;BME280;19905;53.370;-6.314;2022-08-19T07:31:21;100813.81;;;14.09;100.00
29935;BME280;19905;53.370;-6.314;2022-08-19T07:33:57;100813.25;;;14.15;100.00
29935;BME280;19905;53.370;-6.314;2022-08-19T07:36:41;100811.84;;;14.11;100.00
29935;BME280;19905;53.370;-6.314;2022-08-19T07:39:16;100820.53;;;14.13;100.00
29935;BME280;19905;53.370;-6.314;2022-08-19T07:41:52;100813.81;;;14.18;100.00
29935;BME280;19905;53.370;-6.314;2022-08-19T07:44:42;100809.66;;;14.26;100.00
29935;BME280;19905;53.370;-6.314;2022-08-19T07:47:17;100820.28;;;14.35;100.00
29935;BME280;19905;53.370;-6.314;2022-08-19T07:50:10;100821.56;;;14.51;100.00
29935;BME280;19905;53.370;-6.314;2022-08-19T07:52:40;100813.28;;;14.44;100.00
29935;BME280;19905;53.370;-6.314;2022-08-19T07:55:23;100825.22;;;14.49;100.00
29935;BME280;19905;53.370;-6.314;2022-08-19T07:58:10;100843.81;;;14.59;100.00
29935;BME280;19905;53.370;-6.314;2022-08-19T08:00:39;100826.63;;;14.54;100.00
29935;BME280;19905;53.370;-6.314;2022-08-19T08:03:11;100833.44;;;14.66;100.00
29935;BME280;19905;53.370;-6.314;2022-08-19T08:05:42;100838.06;;;14.73;100.00
29935;BME280;19905;53.370;-6.314;2022-08-19T08:08:30;100845.22;;;14.73;100.00
29935;BME280;19905;53.370;-6.314;2022-08-19T08:11:20;100838.75;;;14.66;100.00
29935;BME280;19905;53.370;-6.314;2022-08-19T08:13:50;100844.63;;;14.79;100.00
29935;BME280;19905;53.370;-6.314;2022-08-19T08:16:38;100844.63;;;14.98;100.00
29935;BME280;19905;53.370;-6.314;2022-08-19T08:19:16;100831.78;;;14.94;100.00
29935;BME280;19905;53.370;-6.314;2022-08-19T08:21:54;100846.88;;;15.03;100.00
29935;BME280;19905;53.370;-6.314;2022-08-19T08:24:26;100830.34;;;14.99;100.00
29935;BME280;19905;53.370;-6.314;2022-08-19T08:26:58;100836.88;;;15.15;100.00
29935;BME280;19905;53.370;-6.314;2022-08-19T08:29:28;100830.56;;;15.35;100.00
29935;BME280;19905;53.370;-6.314;2022-08-19T08:32:01;100829.13;;;15.41;100.00
29935;BME280;19905;53.370;-6.314;2022-08-19T08:34:43;100828.66;;;15.55;100.00
29935;BME280;19905;53.370;-6.314;2022-08-19T08:37:18;100828.19;;;15.69;100.00
29935;BME280;19905;53.370;-6.314;2022-08-19T08:39:49;100833.78;;;15.66;100.00
29935;BME280;19905;53.370;-6.314;2022-08-19T08:42:24;100853.75;;;15.90;100.00
29935;BME280;19905;53.370;-6.314;2022-08-19T08:44:58;100846.38;;;15.74;100.00
29935;BME280;19905;53.370;-6.314;2022-08-19T08:47:31;100836.56;;;15.74;100.00
29935;BME280;19905;53.370;-6.314;2022-08-19T08:50:05;100827.25;;;15.88;100.00
29935;BME280;19905;53.370;-6.314;2022-08-19T08:52:43;100825.88;;;15.84;100.00
29935;BME280;19905;53.370;-6.314;2022-08-19T08:55:16;100845.31;;;15.67;100.00
29935;BME280;19905;53.370;-6.314;2022-08-19T08:57:52;100839.13;;;15.66;100.00
29935;BME280;19905;53.370;-6.314;2022-08-19T09:00:28;100821.75;;;15.72;100.00
29935;BME280;19905;53.370;-6.314;2022-08-19T09:03:00;100821.47;;;15.93;100.00
29935;BME280;19905;53.370;-6.314;2022-08-19T09:05:38;100813.81;;;15.80;100.00
29935;BME280;19905;53.370;-6.314;2022-08-19T09:08:28;100796.94;;;15.89;100.00
29935;BME280;19905;53.370;-6.314;2022-08-19T09:11:00;100804.28;;;15.87;100.00
29935;BME280;19905;53.370;-6.314;2022-08-19T09:13:41;100844.31;;;15.95;100.00
29935;BME280;19905;53.370;-6.314;2022-08-19T09:16:19;100821.78;;;15.90;100.00
29935;BME280;19905;53.370;-6.314;2022-08-19T09:19:00;100831.13;;;15.94;100.00
29935;BME280;19905;53.370;-6.314;2022-08-19T09:21:32;100827.72;;;16.01;100.00
29935;BME280;19905;53.370;-6.314;2022-08-19T09:24:04;100841.13;;;16.37;100.00
29935;BME280;19905;53.370;-6.314;2022-08-19T09:26:33;100818.13;;;16.54;100.00
29935;BME280;19905;53.370;-6.314;2022-08-19T09:29:18;100820.19;;;16.78;100.00
29935;BME280;19905;53.370;-6.314;2022-08-19T09:31:48;100808.31;;;16.72;100.00
29935;BME280;19905;53.370;-6.314;2022-08-19T09:34:19;100821.41;;;17.10;100.00
29935;BME280;19905;53.370;-6.314;2022-08-19T09:36:51;100818.78;;;16.92;100.00
29935;BME280;19905;53.370;-6.314;2022-08-19T09:39:24;100814.91;;;16.68;100.00
29935;BME280;19905;53.370;-6.314;2022-08-19T09:42:04;100805.53;;;16.64;100.00
29935;BME280;19905;53.370;-6.314;2022-08-19T09:44:44;100803.38;;;16.86;100.00
29935;BME280;19905;53.370;-6.314;2022-08-19T09:47:14;100802.91;;;16.90;100.00
29935;BME280;19905;53.370;-6.314;2022-08-19T09:49:45;100806.84;;;16.78;100.00
29935;BME280;19905;53.370;-6.314;2022-08-19T09:52:16;100807.00;;;16.59;100.00
29935;BME280;19905;53.370;-6.314;2022-08-19T09:54:47;100809.28;;;16.36;100.00
29935;BME280;19905;53.370;-6.314;2022-08-19T09:57:19;100822.16;;;16.22;100.00
29935;BME280;19905;53.370;-6.314;2022-08-19T09:59:48;100815.13;;;16.04;100.00
29935;BME280;19905;53.370;-6.314;2022-08-19T10:02:19;100803.97;;;15.90;100.00
29935;BME280;19905;53.370;-6.314;2022-08-19T10:04:48;100810.69;;;15.94;100.00
29935;BME280;19905;53.370;-6.314;2022-08-19T10:07:34;100808.47;;;16.08;100.00
29935;BME280;19905;53.370;-6.314;2022-08-19T10:10:06;100797.50;;;15.93;100.00
29935;BME280;19905;53.370;-6.314;2022-08-19T10:12:37;100808.16;;;15.93;100.00
29935;BME280;19905;53.370;-6.314;2022-08-19T10:15:08;100809.09;;;16.01;100.00
29935;BME280;19905;53.370;-6.314;2022-08-19T10:17:37;100802.19;;;16.09;100.00
29935;BME280;19905;53.370;-6.314;2022-08-19T10:20:13;100797.69;;;16.09;100.00
29935;BME280;19905;53.370;-6.314;2022-08-19T10:22:43;100816.94;;;16.21;100.00
29935;BME280;19905;53.370;-6.314;2022-08-19T10:25:25;100806.81;;;16.07;100.00
29935;BME280;19905;53.370;-6.314;2022-08-19T10:27:55;100816.88;;;16.13;100.00
29935;BME280;19905;53.370;-6.314;2022-08-19T10:30:24;100814.13;;;16.05;100.00
29935;BME280;19905;53.370;-6.314;2022-08-19T10:32:52;100837.84;;;15.98;100.00
29935;BME280;19905;53.370;-6.314;2022-08-19T10:35:21;100824.28;;;15.91;100.00
29935;BME280;19905;53.370;-6.314;2022-08-19T10:37:54;100819.53;;;16.13;100.00
29935;BME280;19905;53.370;-6.314;2022-08-19T10:40:30;100819.38;;;16.14;100.00
29935;BME280;19905;53.370;-6.314;2022-08-19T10:42:58;100822.78;;;16.07;100.00
29935;BME280;19905;53.370;-6.314;2022-08-19T10:45:27;100810.00;;;16.10;100.00
29935;BME280;19905;53.370;-6.314;2022-08-19T10:47:56;100816.47;;;16.08;100.00
29935;BME280;19905;53.370;-6.314;2022-08-19T10:50:25;100820.13;;;16.07;100.00
29935;BME280;19905;53.370;-6.314;2022-08-19T10:53:23;100813.00;;;16.25;100.00
29935;BME280;19905;53.370;-6.314;2022-08-19T10:55:55;100803.25;;;16.34;100.00
29935;BME280;19905;53.370;-6.314;2022-08-19T10:58:42;100824.13;;;16.38;100.00
29935;BME280;19905;53.370;-6.314;2022-08-19T11:01:12;100809.66;;;16.59;100.00
29935;BME280;19905;53.370;-6.314;2022-08-19T11:03:41;100807.84;;;16.77;100.00
29935;BME280;19905;53.370;-6.314;2022-08-19T11:06:12;100811.81;;;17.25;100.00
29935;BME280;19905;53.370;-6.314;2022-08-19T11:08:41;100807.06;;;17.45;100.00
29935;BME280;19905;53.370;-6.314;2022-08-19T11:11:14;100803.44;;;17.20;100.00
29935;BME280;19905;53.370;-6.314;2022-08-19T11:13:44;100794.53;;;17.37;100.00
29935;BME280;19905;53.370;-6.314;2022-08-19T11:16:15;100801.06;;;17.77;100.00
29935;BME280;19905;53.370;-6.314;2022-08-19T11:18:46;100786.47;;;18.06;100.00
29935;BME280;19905;53.370;-6.314;2022-08-19T11:21:17;100791.09;;;17.87;100.00
29935;BME280;19905;53.370;-6.314;2022-08-19T11:23:47;100783.81;;;18.06;100.00
29935;BME280;19905;53.370;-6.314;2022-08-19T11:26:19;100788.84;;;18.41;100.00
29935;BME280;19905;53.370;-6.314;2022-08-19T11:28:48;100782.31;;;18.68;100.00
29935;BME280;19905;53.370;-6.314;2022-08-19T11:31:20;100776.44;;;19.05;100.00
29935;BME280;19905;53.370;-6.314;2022-08-19T11:33:56;100787.63;;;19.17;100.00
29935;BME280;19905;53.370;-6.314;2022-08-19T11:36:27;100781.06;;;19.36;100.00
29935;BME280;19905;53.370;-6.314;2022-08-19T11:38:55;100774.66;;;19.45;100.00
29935;BME280;19905;53.370;-6.314;2022-08-19T11:41:26;100781.84;;;18.73;100.00
29935;BME280;19905;53.370;-6.314;2022-08-19T11:43:55;100783.00;;;18.62;100.00
29935;BME280;19905;53.370;-6.314;2022-08-19T11:46:26;100774.97;;;18.62;100.00
29935;BME280;19905;53.370;-6.314;2022-08-19T11:48:57;100787.84;;;18.50;100.00
29935;BME280;19905;53.370;-6.314;2022-08-19T11:51:28;100790.03;;;18.47;100.00
29935;BME280;19905;53.370;-6.314;2022-08-19T11:53:59;100794.03;;;18.35;100.00
29935;BME280;19905;53.370;-6.314;2022-08-19T11:56:30;100785.34;;;18.33;100.00
29935;BME280;19905;53.370;-6.314;2022-08-19T11:59:00;100790.66;;;18.16;100.00
29935;BME280;19905;53.370;-6.314;2022-08-19T12:01:30;100793.84;;;18.20;100.00
29935;BME280;19905;53.370;-6.314;2022-08-19T12:03:58;100796.81;;;18.09;100.00
29935;BME280;19905;53.370;-6.314;2022-08-19T12:06:29;100780.31;;;18.29;100.00
29935;BME280;19905;53.370;-6.314;2022-08-19T12:09:02;100779.13;;;19.05;100.00
29935;BME280;19905;53.370;-6.314;2022-08-19T12:11:33;100774.06;;;19.27;100.00
29935;BME280;19905;53.370;-6.314;2022-08-19T12:14:04;100777.59;;;19.75;100.00
29935;BME280;19905;53.370;-6.314;2022-08-19T12:16:32;100761.69;;;19.96;100.00
29935;BME280;19905;53.370;-6.314;2022-08-19T12:19:06;100779.84;;;20.17;100.00
29935;BME280;19905;53.370;-6.314;2022-08-19T12:21:35;100765.75;;;19.53;100.00
29935;BME280;19905;53.370;-6.314;2022-08-19T12:24:05;100774.44;;;19.16;100.00
29935;BME280;19905;53.370;-6.314;2022-08-19T12:26:36;100776.28;;;19.07;100.00
29935;BME280;19905;53.370;-6.314;2022-08-19T12:29:20;100782.16;;;18.86;100.00
29935;BME280;19905;53.370;-6.314;2022-08-19T12:31:50;100771.66;;;18.76;100.00
29935;BME280;19905;53.370;-6.314;2022-08-19T12:34:18;100801.06;;;18.60;100.00
29935;BME280;19905;53.370;-6.314;2022-08-19T12:36:48;100778.00;;;18.43;100.00
29935;BME280;19905;53.370;-6.314;2022-08-19T12:39:17;100782.69;;;18.73;100.00
29935;BME280;19905;53.370;-6.314;2022-08-19T12:41:47;100778.34;;;18.72;100.00
29935;BME280;19905;53.370;-6.314;2022-08-19T12:44:20;100794.22;;;18.66;100.00
29935;BME280;19905;53.370;-6.314;2022-08-19T12:46:55;100772.78;;;18.49;100.00
29935;BME280;19905;53.370;-6.314;2022-08-19T12:49:24;100774.81;;;18.47;100.00
29935;BME280;19905;53.370;-6.314;2022-08-19T12:52:13;100770.47;;;18.46;100.00
29935;BME280;19905;53.370;-6.314;2022-08-19T12:54:50;100773.78;;;18.40;100.00
29935;BME280;19905;53.370;-6.314;2022-08-19T12:57:23;100776.13;;;18.60;100.00
29935;BME280;19905;53.370;-6.314;2022-08-19T13:00:00;100787.19;;;18.73;100.00
29935;BME280;19905;53.370;-6.314;2022-08-19T13:02:31;100769.63;;;18.87;100.00
29935;BME280;19905;53.370;-6.314;2022-08-19T13:05:06;100779.47;;;19.02;100.00